createdAt,value
2022-10-31T00:01:39.223Z,14.13
2022-10-31T00:04:25.099Z,12.65
2022-10-31T00:07:10.733Z,13.18
2022-10-31T00:09:56.065Z,13.38
2022-10-31T00:12:42.056Z,14.00
2022-10-31T00:15:27.747Z,15.85
2022-10-31T00:18:14.193Z,14.20
2022-10-31T00:21:04.178Z,13.85
2022-10-31T00:23:53.098Z,14.77
2022-10-31T00:26:38.581Z,14.57
2022-10-31T00:29:24.690Z,15.17
2022-10-31T00:32:11.321Z,15.27
2022-10-31T00:34:56.775Z,12.98
2022-10-31T00:37:42.889Z,13.32
2022-10-31T00:40:29.758Z,16.27
2022-10-31T00:43:15.536Z,14.68
2022-10-31T00:46:01.127Z,12.43
2022-10-31T00:48:47.144Z,16.55
2022-10-31T00:51:33.575Z,13.30
2022-10-31T00:54:19.557Z,14.30
2022-10-31T00:57:05.468Z,13.37
2022-10-31T00:59:51.031Z,15.90
2022-10-31T01:02:37.652Z,15.65
2022-10-31T01:05:23.723Z,12.35
2022-10-31T01:08:09.512Z,11.43
2022-10-31T01:11:04.224Z,15.07
2022-10-31T01:13:54.660Z,13.77
2022-10-31T01:16:40.273Z,12.23
2022-10-31T01:19:28.286Z,13.60
2022-10-31T01:22:17.159Z,13.43
2022-10-31T01:25:03.312Z,13.20
2022-10-31T01:27:49.829Z,11.37
2022-10-31T01:30:35.994Z,15.15
2022-10-31T01:33:24.700Z,11.75
2022-10-31T01:36:21.217Z,15.50
2022-10-31T01:39:13.720Z,12.45
2022-10-31T01:41:59.317Z,16.38
2022-10-31T01:45:01.793Z,13.70
2022-10-31T01:47:50.408Z,14.18
2022-10-31T01:50:41.375Z,12.63
2022-10-31T01:53:27.659Z,13.82
2022-10-31T01:56:18.001Z,16.45
2022-10-31T01:59:07.206Z,16.08
2022-10-31T02:01:53.955Z,16.40
2022-10-31T02:04:40.329Z,18.57
2022-10-31T02:07:35.284Z,15.95
2022-10-31T02:10:23.905Z,16.90
2022-10-31T02:13:10.429Z,18.83
2022-10-31T02:16:03.804Z,16.60
2022-10-31T02:18:50.373Z,17.67
2022-10-31T02:21:57.747Z,17.85
2022-10-31T02:24:53.252Z,17.75
2022-10-31T02:28:06.829Z,18.48
2022-10-31T02:31:00.180Z,19.15
2022-10-31T02:34:00.069Z,16.17
2022-10-31T02:36:59.560Z,16.87
2022-10-31T02:40:03.587Z,13.52
2022-10-31T02:43:24.019Z,15.10
2022-10-31T02:46:25.563Z,19.05
2022-10-31T02:49:39.328Z,18.23
2022-10-31T02:52:29.466Z,17.25
2022-10-31T02:55:27.732Z,18.63
2022-10-31T02:58:22.507Z,17.88
2022-10-31T03:01:21.736Z,16.15
2022-10-31T03:04:17.011Z,16.10
2022-10-31T03:07:30.126Z,16.40
2022-10-31T03:10:47.003Z,15.65
2022-10-31T03:14:00.541Z,16.73
2022-10-31T03:16:52.907Z,14.23
2022-10-31T03:19:43.404Z,16.20
2022-10-31T03:22:34.114Z,19.33
2022-10-31T03:25:20.845Z,13.77
2022-10-31T03:28:09.659Z,17.00
2022-10-31T03:30:59.703Z,15.67
2022-10-31T03:33:50.477Z,13.63
2022-10-31T03:36:39.120Z,15.18
2022-10-31T03:39:26.269Z,15.40
2022-10-31T03:42:20.094Z,15.85
2022-10-31T03:45:24.164Z,16.48
2022-10-31T03:48:10.027Z,14.75
2022-10-31T03:51:10.426Z,16.15
2022-10-31T03:54:31.302Z,16.02
2022-10-31T03:57:20.953Z,15.27
2022-10-31T04:00:13.385Z,13.32
2022-10-31T04:03:13.219Z,16.35
2022-10-31T04:06:06.895Z,15.07
2022-10-31T04:08:58.378Z,14.48
2022-10-31T04:11:52.964Z,15.18
2022-10-31T04:14:58.975Z,14.63
2022-10-31T04:17:48.537Z,13.45
2022-10-31T04:20:38.942Z,16.40
2022-10-31T04:23:27.297Z,15.65
2022-10-31T04:26:14.142Z,15.40
2022-10-31T04:29:03.466Z,16.67
2022-10-31T04:31:50.295Z,16.83
2022-10-31T04:34:37.079Z,15.05
2022-10-31T04:37:24.268Z,15.30
2022-10-31T04:40:10.940Z,15.88
2022-10-31T04:43:15.158Z,13.13
2022-10-31T04:46:04.017Z,15.75
2022-10-31T04:48:50.542Z,14.90
2022-10-31T04:51:37.352Z,14.18
2022-10-31T04:54:23.134Z,14.65
2022-10-31T04:57:56.026Z,14.95
2022-10-31T05:00:45.311Z,15.40
2022-10-31T05:03:31.674Z,14.90
2022-10-31T05:06:18.608Z,14.50
2022-10-31T05:09:05.385Z,12.52
2022-10-31T05:11:51.253Z,13.02
2022-10-31T05:14:57.174Z,12.48
2022-10-31T05:18:02.244Z,12.88
2022-10-31T05:21:07.095Z,11.85
2022-10-31T05:24:01.265Z,14.30
2022-10-31T05:26:49.869Z,12.68
2022-10-31T05:29:36.687Z,11.65
2022-10-31T05:32:23.200Z,13.10
2022-10-31T05:35:38.020Z,11.63
2022-10-31T05:39:02.342Z,12.02
2022-10-31T05:41:53.631Z,11.25
2022-10-31T05:44:42.871Z,9.63
2022-10-31T05:47:39.589Z,10.30
2022-10-31T05:50:43.855Z,9.45
2022-10-31T05:53:30.451Z,8.60
2022-10-31T05:56:16.223Z,10.27
2022-10-31T05:59:02.431Z,10.25
2022-10-31T06:01:49.001Z,9.50
2022-10-31T06:05:02.003Z,8.70
2022-10-31T06:07:48.372Z,11.63
2022-10-31T06:10:34.111Z,11.15
2022-10-31T06:13:19.733Z,10.65
2022-10-31T06:16:13.622Z,12.85
2022-10-31T06:18:59.433Z,11.93
2022-10-31T06:21:45.916Z,10.50
2022-10-31T06:24:32.669Z,10.10
2022-10-31T06:27:28.030Z,8.95
2022-10-31T06:30:14.890Z,11.63
2022-10-31T06:33:05.704Z,6.45
2022-10-31T06:35:54.417Z,7.35
2022-10-31T06:38:40.898Z,6.45
2022-10-31T06:41:29.251Z,10.13
2022-10-31T06:44:16.171Z,7.88
2022-10-31T06:47:13.930Z,6.70
2022-10-31T06:49:59.770Z,6.82
2022-10-31T06:52:52.107Z,6.83
2022-10-31T06:55:39.474Z,6.80
2022-10-31T06:58:25.350Z,5.68
2022-10-31T07:01:15.473Z,6.30
2022-10-31T07:04:01.178Z,6.07
2022-10-31T07:06:53.752Z,5.15
2022-10-31T07:09:39.987Z,5.75
2022-10-31T07:12:27.579Z,8.40
2022-10-31T07:15:18.205Z,5.68
2022-10-31T07:18:09.143Z,5.65
2022-10-31T07:20:55.116Z,5.13
2022-10-31T07:23:41.095Z,4.95
2022-10-31T07:26:48.411Z,4.70
2022-10-31T07:29:34.937Z,5.50
2022-10-31T07:32:21.107Z,7.03
2022-10-31T07:35:23.156Z,4.93
2022-10-31T07:38:16.168Z,4.75
2022-10-31T07:41:03.201Z,5.53
2022-10-31T07:43:51.087Z,6.65
2022-10-31T07:46:36.489Z,5.15
2022-10-31T07:49:41.130Z,6.95
2022-10-31T07:52:46.556Z,5.00
2022-10-31T07:56:11.253Z,5.25
2022-10-31T07:58:57.410Z,5.95
2022-10-31T08:01:43.099Z,8.60
2022-10-31T08:04:53.212Z,5.30
2022-10-31T08:08:20.438Z,5.87
2022-10-31T08:11:07.215Z,6.93
2022-10-31T08:13:52.887Z,9.70
2022-10-31T08:16:38.682Z,7.18
2022-10-31T08:19:26.492Z,5.60
2022-10-31T08:22:13.310Z,6.65
2022-10-31T08:24:59.273Z,7.38
2022-10-31T08:27:50.274Z,8.27
2022-10-31T08:30:38.378Z,8.15
2022-10-31T08:33:56.242Z,7.05
2022-10-31T08:37:00.539Z,9.10
2022-10-31T08:39:58.693Z,6.53
2022-10-31T08:42:44.890Z,7.13
2022-10-31T08:45:32.720Z,8.30
2022-10-31T08:48:18.810Z,7.10
2022-10-31T08:51:05.005Z,6.40
2022-10-31T08:53:50.879Z,9.15
2022-10-31T08:56:56.738Z,8.48
2022-10-31T09:00:02.313Z,9.02
2022-10-31T09:03:15.955Z,7.68
2022-10-31T09:06:06.618Z,8.52
2022-10-31T09:08:52.306Z,8.68
2022-10-31T09:11:38.285Z,10.57
2022-10-31T09:14:29.353Z,6.80
2022-10-31T09:17:40.263Z,8.00
2022-10-31T09:20:50.467Z,8.20
2022-10-31T09:23:36.303Z,7.00
2022-10-31T09:26:22.314Z,8.98
2022-10-31T09:29:26.689Z,8.65
2022-10-31T09:32:16.781Z,9.55
2022-10-31T09:35:06.316Z,12.60
2022-10-31T09:38:12.248Z,8.27
2022-10-31T09:41:29.795Z,11.48
2022-10-31T09:45:04.513Z,12.50
2022-10-31T09:48:04.857Z,11.23
2022-10-31T09:50:55.651Z,10.40
2022-10-31T09:54:22.933Z,8.50
2022-10-31T09:57:15.970Z,8.50
2022-10-31T10:00:08.326Z,9.03
2022-10-31T10:03:22.341Z,9.48
2022-10-31T10:06:30.348Z,10.95
2022-10-31T10:09:34.727Z,10.48
2022-10-31T10:13:13.492Z,12.73
2022-10-31T10:16:04.695Z,9.23
2022-10-31T10:18:50.758Z,9.88
2022-10-31T10:21:47.369Z,8.95
2022-10-31T10:24:47.812Z,12.73
2022-10-31T10:27:52.846Z,8.60
2022-10-31T10:30:38.779Z,8.88
2022-10-31T10:33:36.062Z,12.95
2022-10-31T10:36:44.366Z,8.07
2022-10-31T10:39:47.926Z,10.50
2022-10-31T10:43:07.751Z,8.63
2022-10-31T10:46:32.304Z,12.23
2022-10-31T10:49:40.866Z,7.10
2022-10-31T10:52:50.776Z,9.52
2022-10-31T10:55:40.077Z,8.17
2022-10-31T10:58:25.717Z,9.93
2022-10-31T11:04:24.928Z,10.23
2022-10-31T11:07:13.033Z,11.07
2022-10-31T11:10:16.884Z,7.65
2022-10-31T11:13:16.821Z,8.18
2022-10-31T11:16:11.721Z,7.50
2022-10-31T11:19:17.022Z,11.50
2022-10-31T11:22:15.918Z,12.32
2022-10-31T11:25:02.348Z,10.47
2022-10-31T11:27:59.325Z,8.60
2022-10-31T11:31:00.492Z,9.95
2022-10-31T11:33:49.120Z,9.32
2022-10-31T11:36:40.382Z,7.03
2022-10-31T11:39:25.930Z,8.93
2022-10-31T11:42:12.857Z,7.07
2022-10-31T11:44:59.037Z,10.02
2022-10-31T11:47:48.813Z,7.97
2022-10-31T11:50:43.114Z,11.07
2022-10-31T11:53:31.746Z,6.53
2022-10-31T11:56:18.130Z,12.02
2022-10-31T11:59:06.693Z,11.43
2022-10-31T12:01:54.042Z,6.88
2022-10-31T12:04:46.308Z,10.82
2022-10-31T12:07:32.810Z,7.40
2022-10-31T12:10:23.050Z,10.18
2022-10-31T12:13:33.702Z,12.65
2022-10-31T12:16:38.092Z,11.10
2022-10-31T12:19:40.663Z,8.82
2022-10-31T12:22:45.072Z,9.32
2022-10-31T12:26:17.893Z,9.97
2022-10-31T12:29:17.320Z,13.57
2022-10-31T12:32:30.093Z,7.93
2022-10-31T12:35:52.694Z,6.80
2022-10-31T12:39:02.442Z,8.85
2022-10-31T12:41:58.751Z,9.13
2022-10-31T12:44:53.419Z,9.73
2022-10-31T12:48:26.712Z,5.50
2022-10-31T12:51:30.443Z,8.82
2022-10-31T12:54:18.961Z,9.95
2022-10-31T12:57:27.419Z,7.25
2022-10-31T13:00:19.128Z,8.32
2022-10-31T13:03:34.781Z,10.05
2022-10-31T13:06:25.175Z,7.57
2022-10-31T13:09:16.396Z,7.20
2022-10-31T13:12:09.556Z,8.70
2022-10-31T13:15:12.901Z,7.47
2022-10-31T13:18:07.100Z,9.45
2022-10-31T13:20:55.883Z,6.95
2022-10-31T13:23:50.942Z,3.90
2022-10-31T13:26:57.419Z,6.63
2022-10-31T13:30:23.436Z,6.43
2022-10-31T13:33:14.223Z,5.63
2022-10-31T13:36:21.455Z,7.95
2022-10-31T13:39:19.576Z,11.82
2022-10-31T13:42:42.158Z,5.95
2022-10-31T13:45:28.291Z,6.22
2022-10-31T13:48:16.793Z,5.50
2022-10-31T13:51:08.621Z,6.40
2022-10-31T13:53:57.688Z,5.47
2022-10-31T13:56:48.803Z,6.10
2022-10-31T13:59:38.445Z,6.75
2022-10-31T14:02:36.796Z,8.30
2022-10-31T14:05:37.220Z,5.53
2022-10-31T14:08:25.161Z,7.13
2022-10-31T14:11:22.056Z,6.43
2022-10-31T14:14:13.376Z,6.55
2022-10-31T14:17:00.377Z,7.97
2022-10-31T14:20:01.768Z,6.07
2022-10-31T14:22:47.507Z,5.80
2022-10-31T14:25:37.881Z,4.63
2022-10-31T14:28:34.270Z,7.70
2022-10-31T14:31:56.260Z,7.78
2022-10-31T14:34:51.093Z,6.40
2022-10-31T14:38:12.656Z,5.53
2022-10-31T14:41:17.878Z,5.35
2022-10-31T14:44:12.760Z,4.38
2022-10-31T14:47:54.250Z,7.75
2022-10-31T14:50:59.078Z,5.25
2022-10-31T14:53:54.194Z,4.57
2022-10-31T14:56:54.082Z,7.40
2022-10-31T14:59:46.153Z,9.73
2022-10-31T15:02:42.440Z,8.75
2022-10-31T15:05:30.312Z,11.43
2022-10-31T15:08:32.204Z,6.55
2022-10-31T15:11:19.267Z,6.37
2022-10-31T15:14:23.365Z,5.20
2022-10-31T15:17:13.407Z,6.47
2022-10-31T15:19:59.448Z,8.45
2022-10-31T15:22:45.636Z,10.45
2022-10-31T15:25:36.312Z,8.10
2022-10-31T15:28:24.869Z,7.82
2022-10-31T15:31:17.452Z,5.20
2022-10-31T15:34:21.251Z,4.65
2022-10-31T15:37:16.043Z,5.65
2022-10-31T15:40:14.144Z,7.38
2022-10-31T15:43:05.987Z,7.78
2022-10-31T15:45:52.317Z,9.88
2022-10-31T15:48:39.344Z,6.63
2022-10-31T15:51:34.974Z,6.63
2022-10-31T15:54:21.506Z,10.45
2022-10-31T15:57:12.516Z,9.00
2022-10-31T15:59:59.010Z,8.73
2022-10-31T16:02:44.378Z,13.23
2022-10-31T16:05:44.624Z,8.27
2022-10-31T16:08:30.765Z,8.70
2022-10-31T16:11:35.025Z,9.82
2022-10-31T16:14:25.942Z,8.48
2022-10-31T16:17:14.866Z,11.57
2022-10-31T16:20:06.736Z,14.90
2022-10-31T16:22:54.697Z,9.75
2022-10-31T16:25:40.678Z,5.90
2022-10-31T16:28:31.948Z,10.70
2022-10-31T16:31:28.233Z,8.23
2022-10-31T16:34:26.235Z,7.03
2022-10-31T16:37:14.759Z,10.35
2022-10-31T16:40:00.315Z,9.48
2022-10-31T16:42:49.684Z,8.43
2022-10-31T16:45:35.956Z,8.43
2022-10-31T16:48:24.193Z,10.55
2022-10-31T16:51:09.855Z,13.27
2022-10-31T16:53:56.079Z,12.93
2022-10-31T16:56:43.762Z,9.77
2022-10-31T16:59:30.952Z,11.75
2022-10-31T17:02:17.752Z,7.80
2022-10-31T17:05:04.042Z,10.20
2022-10-31T17:07:51.626Z,10.60
2022-10-31T17:10:38.764Z,10.32
2022-10-31T17:13:31.650Z,8.85
2022-10-31T17:16:17.357Z,13.15
2022-10-31T17:19:03.144Z,9.48
2022-10-31T17:21:49.412Z,14.27
2022-10-31T17:24:35.321Z,8.65
2022-10-31T17:27:21.101Z,10.23
2022-10-31T17:30:07.382Z,14.45
2022-10-31T17:32:55.428Z,9.18
2022-10-31T17:35:42.774Z,22.23
2022-10-31T17:38:28.592Z,21.23
2022-10-31T17:41:14.455Z,26.23
2022-10-31T17:44:01.169Z,12.63
2022-10-31T17:46:48.038Z,8.90
2022-10-31T17:49:33.816Z,15.73
2022-10-31T17:52:20.183Z,18.20
2022-10-31T17:55:06.378Z,14.23
2022-10-31T17:57:52.004Z,12.48
2022-10-31T18:00:41.101Z,18.88
2022-10-31T18:03:28.064Z,24.60
2022-10-31T18:06:16.647Z,14.68
2022-10-31T18:09:04.991Z,17.83
2022-10-31T18:11:51.470Z,14.02
2022-10-31T18:14:37.419Z,9.43
2022-10-31T18:17:22.838Z,9.35
2022-10-31T18:20:09.002Z,12.63
2022-10-31T18:22:54.996Z,11.55
2022-10-31T18:25:43.159Z,8.75
2022-10-31T18:28:29.333Z,9.82
2022-10-31T18:31:15.426Z,16.00
2022-10-31T18:34:01.134Z,15.88
2022-10-31T18:36:46.744Z,17.38
2022-10-31T18:39:32.672Z,13.60
2022-10-31T18:42:19.438Z,15.85
2022-10-31T18:45:11.331Z,14.10
2022-10-31T18:47:57.695Z,13.63
2022-10-31T18:50:44.610Z,12.55
2022-10-31T18:53:30.658Z,12.15
2022-10-31T18:56:16.788Z,12.38
2022-10-31T18:59:03.212Z,14.88
2022-10-31T19:01:49.160Z,18.40
2022-10-31T19:04:35.362Z,14.90
2022-10-31T19:07:20.899Z,12.65
2022-10-31T19:10:06.845Z,11.98
2022-10-31T19:12:52.964Z,13.48
2022-10-31T19:15:39.125Z,11.90
2022-10-31T19:18:25.528Z,12.70
2022-10-31T19:21:13.704Z,11.23
2022-10-31T19:24:01.180Z,11.20
2022-10-31T19:26:47.721Z,9.83
2022-10-31T19:29:34.099Z,12.07
2022-10-31T19:32:19.959Z,10.30
2022-10-31T19:35:09.370Z,8.90
2022-10-31T19:37:55.061Z,10.40
2022-10-31T19:40:40.865Z,10.18
2022-10-31T19:43:29.180Z,9.80
2022-10-31T19:46:22.637Z,9.57
2022-10-31T19:49:14.002Z,13.77
2022-10-31T19:51:59.798Z,12.05
2022-10-31T19:54:45.787Z,11.75
2022-10-31T19:57:56.559Z,10.45
2022-10-31T20:00:42.281Z,10.32
2022-10-31T20:03:27.715Z,15.53
2022-10-31T20:06:21.039Z,13.30
2022-10-31T20:09:13.743Z,10.73
2022-10-31T20:11:59.996Z,10.20
2022-10-31T20:14:46.079Z,11.43
2022-10-31T20:17:32.100Z,12.27
2022-10-31T20:20:17.891Z,11.57
2022-10-31T20:23:05.422Z,13.65
2022-10-31T20:25:51.702Z,12.23
2022-10-31T20:28:41.384Z,9.70
2022-10-31T20:31:31.537Z,8.85
2022-10-31T20:34:17.248Z,13.20
2022-10-31T20:37:02.916Z,10.77
2022-10-31T20:39:50.373Z,13.32
2022-10-31T20:42:39.118Z,12.63
2022-10-31T20:45:25.425Z,9.52
2022-10-31T20:48:10.824Z,12.82
2022-10-31T20:51:03.005Z,15.18
2022-10-31T20:53:53.200Z,10.18
2022-10-31T20:56:38.980Z,10.65
2022-10-31T20:59:25.510Z,13.32
2022-10-31T21:02:12.354Z,16.13
2022-10-31T21:04:58.343Z,17.13
2022-10-31T21:07:44.518Z,15.98
2022-10-31T21:10:30.431Z,19.60
2022-10-31T21:13:16.569Z,13.88
2022-10-31T21:16:04.901Z,14.20
2022-10-31T21:18:51.961Z,13.38
2022-10-31T21:21:38.360Z,24.87
2022-10-31T21:24:24.231Z,15.65
2022-10-31T21:27:12.505Z,19.15
2022-10-31T21:30:01.569Z,19.97
2022-10-31T21:32:48.184Z,16.10
2022-10-31T21:35:34.021Z,18.63
2022-10-31T21:38:20.266Z,16.23
2022-10-31T21:41:13.058Z,16.50
2022-10-31T21:43:59.977Z,14.70
2022-10-31T21:46:48.019Z,14.68
2022-10-31T21:49:36.545Z,17.23
2022-10-31T21:52:22.862Z,18.02
2022-10-31T21:55:09.896Z,19.38
2022-10-31T21:57:55.983Z,16.33
2022-10-31T22:00:42.144Z,15.75
2022-10-31T22:03:28.046Z,16.25
2022-10-31T22:06:15.656Z,14.52
2022-10-31T22:09:04.127Z,14.55
2022-10-31T22:11:50.405Z,18.08
2022-10-31T22:14:36.549Z,15.57
2022-10-31T22:17:22.551Z,16.17
2022-10-31T22:20:08.813Z,15.43
2022-10-31T22:22:54.956Z,15.70
2022-10-31T22:25:40.268Z,14.00
2022-10-31T22:28:29.598Z,14.45
2022-10-31T22:31:18.547Z,17.55
2022-10-31T22:34:04.312Z,12.18
2022-10-31T22:36:50.180Z,16.88
2022-10-31T22:39:35.681Z,15.82
2022-10-31T22:42:21.358Z,18.48
2022-10-31T22:45:07.419Z,18.58
2022-10-31T22:47:53.414Z,10.70
2022-10-31T22:50:39.470Z,12.68
2022-10-31T22:53:26.180Z,14.18
2022-10-31T22:56:16.736Z,10.73
2022-10-31T22:59:03.376Z,12.40
2022-10-31T23:01:49.801Z,13.43
2022-10-31T23:04:35.456Z,16.27
2022-10-31T23:07:23.202Z,13.25
2022-10-31T23:10:09.983Z,12.50
2022-10-31T23:13:15.008Z,14.48
2022-10-31T23:16:26.224Z,10.25
2022-10-31T23:19:17.443Z,10.32
2022-10-31T23:22:04.478Z,13.05
2022-10-31T23:24:50.282Z,10.65
2022-10-31T23:27:37.136Z,9.25
2022-10-31T23:30:23.027Z,12.48
2022-10-31T23:33:08.898Z,14.13
2022-10-31T23:35:54.924Z,12.40
2022-10-31T23:38:40.468Z,14.47
2022-10-31T23:41:26.211Z,13.70
2022-10-31T23:44:11.621Z,12.98
2022-10-31T23:46:58.277Z,14.87
2022-10-31T23:49:44.491Z,16.23
2022-10-31T23:52:31.084Z,14.73
2022-10-31T23:55:17.138Z,11.13
2022-10-31T23:58:02.869Z,12.23
